createdAt,value
2023-06-30T00:03:35.071Z,4.20
2023-06-30T00:08:38.275Z,4.60
2023-06-30T00:13:41.385Z,4.30
2023-06-30T00:18:44.604Z,4.10
2023-06-30T00:23:48.012Z,4.30
2023-06-30T00:28:51.327Z,4.30
2023-06-30T00:33:54.543Z,4.20
2023-06-30T00:38:57.660Z,4.00
2023-06-30T00:44:00.757Z,4.00
2023-06-30T00:49:03.871Z,4.50
2023-06-30T00:54:07.084Z,4.90
2023-06-30T00:59:10.289Z,5.00
2023-06-30T01:04:24.979Z,4.40
2023-06-30T01:09:34.003Z,5.00
2023-06-30T01:14:38.924Z,5.30
2023-06-30T01:19:46.350Z,4.60
2023-06-30T01:24:52.770Z,4.00
2023-06-30T01:29:55.980Z,5.00
2023-06-30T01:34:59.027Z,4.50
2023-06-30T01:40:02.407Z,4.00
2023-06-30T01:45:07.211Z,4.30
2023-06-30T01:50:11.176Z,4.30
2023-06-30T01:55:14.294Z,4.60
2023-06-30T02:00:17.610Z,4.20
2023-06-30T02:05:20.723Z,4.40
2023-06-30T02:10:23.828Z,4.50
2023-06-30T02:15:26.935Z,4.80
2023-06-30T02:20:29.936Z,4.30
2023-06-30T02:25:33.048Z,4.40
2023-06-30T02:30:36.072Z,4.50
2023-06-30T02:35:39.647Z,5.40
2023-06-30T02:40:42.783Z,4.90
2023-06-30T02:45:46.156Z,3.40
2023-06-30T02:50:49.613Z,3.80
2023-06-30T02:55:52.726Z,3.40
2023-06-30T03:00:57.877Z,3.30
2023-06-30T03:06:01.086Z,3.50
2023-06-30T03:11:04.215Z,3.80
2023-06-30T03:16:08.435Z,4.20
2023-06-30T03:21:11.648Z,3.50
2023-06-30T03:26:15.470Z,4.60
2023-06-30T03:31:18.620Z,4.30
2023-06-30T03:36:21.690Z,4.00
2023-06-30T03:41:24.695Z,3.80
2023-06-30T03:46:27.769Z,3.90
2023-06-30T03:51:30.909Z,3.90
2023-06-30T03:56:34.023Z,3.70
2023-06-30T04:01:38.526Z,3.50
2023-06-30T04:06:41.572Z,3.70
2023-06-30T04:11:44.687Z,3.50
2023-06-30T04:16:47.912Z,3.20
2023-06-30T04:21:51.306Z,2.60
2023-06-30T04:26:54.427Z,2.80
2023-06-30T04:31:57.602Z,2.90
2023-06-30T04:37:00.741Z,2.50
2023-06-30T04:42:04.585Z,3.20
2023-06-30T04:47:07.781Z,3.50
2023-06-30T04:52:11.095Z,3.20
2023-06-30T04:57:14.203Z,3.60
2023-06-30T05:02:17.230Z,3.00
2023-06-30T05:07:20.859Z,2.90
2023-06-30T05:12:24.166Z,3.20
2023-06-30T05:17:27.317Z,2.90
2023-06-30T05:22:30.465Z,2.90
2023-06-30T05:27:33.492Z,3.50
2023-06-30T05:32:36.721Z,3.10
2023-06-30T05:37:39.891Z,3.30
2023-06-30T05:42:42.998Z,3.00
2023-06-30T05:47:46.127Z,3.20
2023-06-30T05:52:49.897Z,3.20
2023-06-30T05:57:53.160Z,2.60
2023-06-30T06:02:56.615Z,3.20
2023-06-30T06:07:59.985Z,3.60
2023-06-30T06:13:03.078Z,3.50
2023-06-30T06:18:06.431Z,6.20
2023-06-30T06:23:09.630Z,3.40
2023-06-30T06:28:12.828Z,4.10
2023-06-30T06:33:15.835Z,2.80
2023-06-30T06:38:20.118Z,5.90
2023-06-30T06:43:27.651Z,5.00
2023-06-30T06:48:31.345Z,3.60
2023-06-30T06:53:35.632Z,3.10
2023-06-30T06:58:43.273Z,3.40
2023-06-30T07:03:47.018Z,5.90
2023-06-30T07:08:50.398Z,3.70
2023-06-30T07:13:53.406Z,3.80
2023-06-30T07:18:56.551Z,2.70
2023-06-30T07:23:59.846Z,2.80
2023-06-30T07:29:02.943Z,2.40
2023-06-30T07:34:06.172Z,3.20
2023-06-30T07:39:09.469Z,5.60
2023-06-30T07:44:13.190Z,4.50
2023-06-30T07:49:16.190Z,3.00
2023-06-30T07:54:19.395Z,2.40
2023-06-30T07:59:23.017Z,3.10
2023-06-30T08:04:26.475Z,3.40
2023-06-30T08:09:29.648Z,3.20
2023-06-30T08:14:32.858Z,2.80
2023-06-30T08:19:47.174Z,2.60
2023-06-30T08:24:52.713Z,2.60
2023-06-30T08:29:55.733Z,2.90
2023-06-30T08:34:58.899Z,2.30
2023-06-30T08:40:02.328Z,2.80
2023-06-30T08:45:06.488Z,2.90
2023-06-30T08:50:10.241Z,2.30
2023-06-30T08:55:13.984Z,2.50
2023-06-30T09:00:17.795Z,2.80
2023-06-30T09:05:26.192Z,3.10
2023-06-30T09:10:35.323Z,3.20
2023-06-30T09:15:41.371Z,3.00
2023-06-30T09:20:44.663Z,3.50
2023-06-30T09:25:48.511Z,3.60
2023-06-30T09:30:52.061Z,3.60
2023-06-30T09:35:57.638Z,3.10
2023-06-30T09:41:04.631Z,4.20
2023-06-30T09:46:07.741Z,4.80
2023-06-30T09:51:11.157Z,4.30
2023-06-30T09:56:24.264Z,3.60
2023-06-30T10:01:27.465Z,3.10
2023-06-30T10:06:32.151Z,3.20
2023-06-30T10:11:37.461Z,3.40
2023-06-30T10:16:41.434Z,3.80
2023-06-30T10:21:44.653Z,3.10
2023-06-30T10:26:48.991Z,3.00
2023-06-30T10:31:51.961Z,3.00
2023-06-30T10:36:55.418Z,4.50
2023-06-30T10:42:01.109Z,3.10
2023-06-30T10:47:06.657Z,3.10
2023-06-30T10:52:11.551Z,2.90
2023-06-30T10:57:24.657Z,3.20
2023-06-30T11:02:32.561Z,3.10
2023-06-30T11:07:35.934Z,2.80
2023-06-30T11:12:53.560Z,3.50
2023-06-30T11:17:56.731Z,3.20
2023-06-30T11:23:04.372Z,2.90
2023-06-30T11:28:10.187Z,3.00
2023-06-30T11:33:13.254Z,2.90
2023-06-30T11:38:16.659Z,3.40
2023-06-30T11:43:23.452Z,3.50
2023-06-30T11:48:29.597Z,3.10
2023-06-30T11:53:32.946Z,3.00
2023-06-30T11:58:36.051Z,3.20
2023-06-30T12:03:39.219Z,3.40
2023-06-30T12:08:42.382Z,3.60
2023-06-30T12:13:48.473Z,3.50
2023-06-30T12:18:52.074Z,3.60
2023-06-30T12:23:58.372Z,3.70
2023-06-30T12:29:06.377Z,3.80
2023-06-30T12:34:09.634Z,2.90
2023-06-30T12:39:12.820Z,3.30
2023-06-30T12:44:16.265Z,3.40
2023-06-30T12:49:19.458Z,3.30
2023-06-30T12:54:22.649Z,3.30
2023-06-30T12:59:25.977Z,2.70
2023-06-30T13:04:29.280Z,3.40
2023-06-30T13:09:32.284Z,3.60
2023-06-30T13:14:35.355Z,3.40
2023-06-30T13:19:38.397Z,3.80
2023-06-30T13:24:42.180Z,3.60
2023-06-30T13:29:52.607Z,3.30
2023-06-30T13:34:56.154Z,3.40
2023-06-30T13:39:59.636Z,3.20
2023-06-30T13:45:02.647Z,3.60
2023-06-30T13:50:06.370Z,4.00
2023-06-30T13:55:09.724Z,3.80
2023-06-30T14:00:13.717Z,3.60
2023-06-30T14:05:16.964Z,4.00
2023-06-30T14:10:20.132Z,4.40
2023-06-30T14:15:23.561Z,3.80
2023-06-30T14:20:26.761Z,3.70
2023-06-30T14:25:29.879Z,3.40
2023-06-30T14:30:35.623Z,3.60
2023-06-30T14:35:39.099Z,3.70
2023-06-30T14:40:42.480Z,3.60
2023-06-30T14:45:46.096Z,4.00
2023-06-30T14:50:49.989Z,3.80
2023-06-30T14:55:53.253Z,3.70
2023-06-30T15:00:56.446Z,3.90
2023-06-30T15:05:59.558Z,3.80
2023-06-30T15:11:02.700Z,3.20
2023-06-30T15:16:06.193Z,3.40
2023-06-30T15:21:09.406Z,3.60
2023-06-30T15:26:12.517Z,4.00
2023-06-30T15:31:15.925Z,3.80
2023-06-30T15:36:19.078Z,4.00
2023-06-30T15:41:23.634Z,3.90
2023-06-30T15:46:26.948Z,5.50
2023-06-30T15:51:30.104Z,4.10
2023-06-30T15:56:33.206Z,4.20
2023-06-30T16:01:36.316Z,3.80
2023-06-30T16:06:39.628Z,4.00
2023-06-30T16:11:42.713Z,4.60
2023-06-30T16:16:46.191Z,4.20
2023-06-30T16:21:50.271Z,4.80
2023-06-30T16:26:53.508Z,4.10
2023-06-30T16:31:56.520Z,5.40
2023-06-30T16:36:59.927Z,5.30
2023-06-30T16:42:03.061Z,6.10
2023-06-30T16:47:06.489Z,6.30
2023-06-30T16:52:09.763Z,5.50
2023-06-30T16:57:12.886Z,6.20
2023-06-30T17:02:16.899Z,6.30
2023-06-30T17:07:20.016Z,6.50
2023-06-30T17:12:23.124Z,7.30
2023-06-30T17:17:26.548Z,7.00
2023-06-30T17:22:29.751Z,7.80
2023-06-30T17:27:33.164Z,8.00
2023-06-30T17:32:36.293Z,7.80
2023-06-30T17:37:39.486Z,8.30
2023-06-30T17:42:42.431Z,7.70
2023-06-30T17:47:45.639Z,8.60
2023-06-30T17:52:48.713Z,8.40
2023-06-30T17:57:51.715Z,9.90
2023-06-30T18:02:54.787Z,8.30
2023-06-30T18:07:58.749Z,9.20
2023-06-30T18:13:03.303Z,9.20
2023-06-30T18:18:06.440Z,8.50
2023-06-30T18:23:09.720Z,9.00
2023-06-30T18:28:13.149Z,10.40
2023-06-30T18:33:16.958Z,10.50
2023-06-30T18:38:20.060Z,10.60
2023-06-30T18:43:23.067Z,9.10
2023-06-30T18:48:26.185Z,9.20
2023-06-30T18:53:29.288Z,10.00
2023-06-30T18:58:32.296Z,10.10
2023-06-30T19:03:35.474Z,9.60
2023-06-30T19:08:38.927Z,10.10
2023-06-30T19:13:42.245Z,10.10
2023-06-30T19:18:45.662Z,9.10
2023-06-30T19:23:48.881Z,9.30
2023-06-30T19:28:51.985Z,8.40
2023-06-30T19:33:55.404Z,9.00
2023-06-30T19:38:58.459Z,8.60
2023-06-30T19:44:01.623Z,9.00
2023-06-30T19:49:04.929Z,8.70
2023-06-30T19:54:08.347Z,8.50
2023-06-30T19:59:11.638Z,9.00
2023-06-30T20:04:14.951Z,10.30
2023-06-30T20:09:19.321Z,10.20
2023-06-30T20:14:22.524Z,11.90
2023-06-30T20:19:25.541Z,12.50
2023-06-30T20:24:28.694Z,12.90
2023-06-30T20:29:31.957Z,12.70
2023-06-30T20:34:35.071Z,12.20
2023-06-30T20:39:39.818Z,12.30
2023-06-30T20:44:43.245Z,12.40
2023-06-30T20:49:46.476Z,12.00
2023-06-30T20:54:49.754Z,10.10
2023-06-30T20:59:52.759Z,9.70
2023-06-30T21:04:59.006Z,12.10
2023-06-30T21:10:02.252Z,11.00
2023-06-30T21:15:06.071Z,12.80
2023-06-30T21:20:10.087Z,12.30
2023-06-30T21:25:13.247Z,12.40
2023-06-30T21:30:16.545Z,11.70
2023-06-30T21:35:19.741Z,11.10
2023-06-30T21:40:22.906Z,11.80
2023-06-30T21:45:26.070Z,10.70
2023-06-30T21:50:29.293Z,10.30
2023-06-30T21:55:32.734Z,13.90
2023-06-30T22:00:36.313Z,10.00
2023-06-30T22:05:39.424Z,9.80
2023-06-30T22:10:42.438Z,7.30
2023-06-30T22:15:45.656Z,6.20
2023-06-30T22:20:49.042Z,5.40
2023-06-30T22:25:52.477Z,5.50
2023-06-30T22:30:55.599Z,6.00
2023-06-30T22:35:58.695Z,6.00
2023-06-30T22:41:02.252Z,4.30
2023-06-30T22:46:05.319Z,5.20
2023-06-30T22:51:08.323Z,5.10
2023-06-30T22:56:11.437Z,5.90
2023-06-30T23:01:14.591Z,4.40
2023-06-30T23:06:17.654Z,4.50
2023-06-30T23:11:20.869Z,5.00
2023-06-30T23:16:24.381Z,4.80
2023-06-30T23:21:29.134Z,5.20
2023-06-30T23:26:36.417Z,4.50
2023-06-30T23:31:40.429Z,5.20
2023-06-30T23:36:43.575Z,5.10
2023-06-30T23:41:46.580Z,4.20
2023-06-30T23:46:49.759Z,4.20
2023-06-30T23:51:53.107Z,3.50
2023-06-30T23:56:56.221Z,3.80
